createdAt,value
2019-03-29T00:03:09.684Z,35.13
2019-03-29T00:08:04.014Z,36.00
2019-03-29T00:12:57.976Z,35.50
2019-03-29T00:17:52.057Z,34.63
2019-03-29T00:22:46.217Z,35.87
2019-03-29T00:27:40.240Z,34.47
2019-03-29T00:32:34.362Z,34.20
2019-03-29T00:37:28.318Z,34.07
2019-03-29T00:42:22.400Z,32.83
2019-03-29T00:47:16.348Z,34.70
2019-03-29T00:52:10.325Z,32.83
2019-03-29T00:57:05.013Z,33.43
2019-03-29T01:01:59.381Z,32.60
2019-03-29T01:06:53.334Z,32.10
2019-03-29T01:11:47.323Z,32.03
2019-03-29T01:16:41.291Z,30.13
2019-03-29T01:21:35.249Z,29.83
2019-03-29T01:26:29.209Z,28.97
2019-03-29T01:31:23.302Z,29.53
2019-03-29T01:36:17.348Z,28.63
2019-03-29T01:41:11.303Z,29.33
2019-03-29T01:46:05.267Z,31.27
2019-03-29T01:50:59.342Z,28.47
2019-03-29T01:55:53.310Z,29.17
2019-03-29T02:00:47.291Z,28.03
2019-03-29T02:05:41.380Z,25.47
2019-03-29T02:10:35.581Z,27.63
2019-03-29T02:15:29.656Z,25.60
2019-03-29T02:20:24.156Z,25.93
2019-03-29T02:25:18.219Z,25.40
2019-03-29T02:30:12.585Z,25.03
2019-03-29T02:35:06.748Z,25.20
2019-03-29T02:40:01.508Z,24.83
2019-03-29T02:44:55.465Z,23.10
2019-03-29T02:49:49.442Z,24.63
2019-03-29T02:54:43.406Z,24.20
2019-03-29T02:59:37.382Z,24.07
2019-03-29T03:04:31.450Z,22.83
2019-03-29T03:09:25.436Z,23.60
2019-03-29T03:14:19.501Z,22.40
2019-03-29T03:19:13.496Z,22.10
2019-03-29T03:24:07.499Z,22.67
2019-03-29T03:29:01.546Z,22.57
2019-03-29T03:33:55.698Z,22.97
2019-03-29T03:38:49.861Z,24.17
2019-03-29T03:43:43.931Z,22.23
2019-03-29T03:48:37.894Z,23.00
2019-03-29T03:53:31.855Z,23.33
2019-03-29T03:58:26.442Z,24.57
2019-03-29T04:03:21.265Z,23.60
2019-03-29T04:08:16.725Z,24.63
2019-03-29T04:13:10.674Z,25.23
2019-03-29T04:18:04.654Z,24.53
2019-03-29T04:22:58.641Z,25.23
2019-03-29T04:27:52.641Z,23.90
2019-03-29T04:32:46.627Z,25.07
2019-03-29T04:37:40.594Z,24.07
2019-03-29T04:42:34.558Z,23.73
2019-03-29T04:47:28.533Z,24.33
2019-03-29T04:52:22.591Z,25.73
2019-03-29T04:57:16.585Z,24.20
2019-03-29T05:02:10.580Z,23.90
2019-03-29T05:07:04.581Z,23.47
2019-03-29T05:11:58.659Z,23.00
2019-03-29T05:16:52.633Z,23.10
2019-03-29T05:21:46.622Z,24.53
2019-03-29T05:26:40.588Z,24.03
2019-03-29T05:31:34.543Z,23.00
2019-03-29T05:36:28.514Z,22.73
2019-03-29T05:41:22.602Z,23.77
2019-03-29T05:46:16.686Z,24.00
2019-03-29T05:51:10.707Z,22.80
2019-03-29T05:56:04.861Z,23.57
2019-03-29T06:00:58.977Z,22.67
2019-03-29T06:05:52.973Z,21.77
2019-03-29T06:10:49.238Z,22.87
2019-03-29T06:15:42.906Z,22.67
2019-03-29T06:20:37.035Z,22.63
2019-03-29T06:25:31.027Z,21.87
2019-03-29T06:30:29.265Z,20.13
2019-03-29T06:35:23.579Z,20.63
2019-03-29T06:40:24.224Z,20.03
2019-03-29T06:45:18.232Z,19.40
2019-03-29T06:50:14.038Z,17.57
2019-03-29T06:55:08.292Z,15.77
2019-03-29T07:00:03.943Z,16.03
2019-03-29T07:04:57.966Z,13.07
2019-03-29T07:09:51.944Z,12.53
2019-03-29T07:14:45.934Z,12.67
2019-03-29T07:19:39.908Z,12.47
2019-03-29T07:24:33.965Z,12.13
2019-03-29T07:29:27.962Z,11.33
2019-03-29T07:34:21.912Z,11.00
2019-03-29T07:39:15.879Z,10.50
2019-03-29T07:44:09.899Z,10.90
2019-03-29T07:49:04.110Z,10.63
2019-03-29T07:53:58.079Z,11.50
2019-03-29T07:58:52.081Z,11.47
2019-03-29T08:03:46.157Z,11.30
2019-03-29T08:08:40.246Z,11.07
2019-03-29T08:13:34.328Z,10.63
2019-03-29T08:18:28.300Z,10.60
2019-03-29T08:23:22.277Z,11.00
2019-03-29T08:28:16.283Z,10.57
2019-03-29T08:33:10.476Z,10.00
2019-03-29T08:38:06.381Z,10.03
2019-03-29T08:43:00.453Z,8.97
2019-03-29T08:47:54.556Z,10.07
2019-03-29T08:52:48.512Z,10.47
2019-03-29T08:57:42.483Z,10.70
2019-03-29T09:02:36.521Z,10.67
2019-03-29T09:07:44.009Z,11.47
2019-03-29T09:12:26.638Z,10.70
2019-03-29T09:17:20.583Z,10.47
2019-03-29T09:22:14.540Z,10.97
2019-03-29T09:27:08.506Z,10.60
2019-03-29T09:32:02.581Z,10.57
2019-03-29T09:36:59.760Z,10.50
2019-03-29T09:41:52.544Z,11.47
2019-03-29T09:46:46.525Z,10.50
2019-03-29T09:51:40.728Z,9.77
2019-03-29T09:56:39.041Z,10.70
2019-03-29T10:01:30.851Z,8.77
2019-03-29T10:06:24.924Z,8.95
2019-03-29T10:11:21.860Z,8.63
2019-03-29T10:16:14.755Z,9.23
2019-03-29T10:21:08.735Z,8.40
2019-03-29T10:26:02.923Z,7.07
2019-03-29T10:30:57.001Z,7.15
2019-03-29T10:35:52.672Z,6.45
2019-03-29T10:40:47.054Z,6.92
2019-03-29T10:45:41.023Z,6.70
2019-03-29T10:50:35.291Z,6.80
2019-03-29T10:55:29.379Z,6.20
2019-03-29T11:00:33.983Z,5.97
2019-03-29T11:05:27.963Z,6.12
2019-03-29T11:10:29.860Z,5.72
2019-03-29T11:15:24.035Z,4.90
2019-03-29T11:20:18.805Z,4.20
2019-03-29T11:25:12.887Z,4.20
2019-03-29T11:30:07.011Z,3.50
2019-03-29T11:35:01.254Z,5.35
2019-03-29T11:39:55.245Z,4.10
2019-03-29T11:44:49.410Z,4.30
2019-03-29T11:49:43.408Z,3.90
2019-03-29T11:54:37.520Z,3.85
2019-03-29T11:59:31.679Z,4.00
2019-03-29T12:04:25.680Z,3.62
2019-03-29T12:09:19.674Z,3.60
2019-03-29T12:14:13.635Z,3.60
2019-03-29T12:19:07.708Z,2.92
2019-03-29T12:24:01.692Z,3.25
2019-03-29T12:28:55.701Z,3.10
2019-03-29T12:33:49.686Z,3.12
2019-03-29T12:38:43.758Z,3.00
2019-03-29T12:43:37.850Z,3.05
2019-03-29T12:48:31.907Z,2.62
2019-03-29T12:53:25.912Z,3.02
2019-03-29T12:58:19.881Z,3.00
2019-03-29T13:03:13.881Z,3.00
2019-03-29T13:08:07.896Z,3.10
2019-03-29T13:13:01.980Z,2.60
2019-03-29T13:17:55.961Z,2.80
2019-03-29T13:22:49.948Z,2.70
2019-03-29T13:27:43.914Z,2.35
2019-03-29T13:32:38.015Z,2.60
2019-03-29T13:37:32.062Z,2.50
2019-03-29T13:42:26.150Z,2.58
2019-03-29T13:47:20.144Z,2.80
2019-03-29T13:52:14.303Z,2.33
2019-03-29T13:57:08.315Z,2.45
2019-03-29T14:02:02.431Z,2.85
2019-03-29T14:06:56.432Z,3.58
2019-03-29T14:11:50.401Z,2.90
2019-03-29T14:16:44.381Z,2.83
2019-03-29T14:21:38.380Z,2.80
2019-03-29T14:26:32.377Z,2.65
2019-03-29T14:31:26.483Z,2.67
2019-03-29T14:36:20.487Z,2.70
2019-03-29T14:41:14.585Z,2.80
2019-03-29T14:46:08.537Z,2.75
2019-03-29T14:51:02.673Z,2.90
2019-03-29T14:55:56.676Z,2.55
2019-03-29T15:00:50.697Z,2.70
2019-03-29T15:05:44.662Z,2.67
2019-03-29T15:10:38.863Z,3.27
2019-03-29T15:15:32.849Z,2.55
2019-03-29T15:20:26.925Z,2.08
2019-03-29T15:25:20.917Z,2.40
2019-03-29T15:30:15.152Z,2.85
2019-03-29T15:35:09.428Z,2.37
2019-03-29T15:40:04.420Z,2.10
2019-03-29T15:44:58.424Z,2.20
2019-03-29T15:49:56.134Z,2.27
2019-03-29T15:54:48.275Z,2.17
2019-03-29T15:59:42.286Z,2.05
2019-03-29T16:04:36.286Z,2.70
2019-03-29T16:09:30.267Z,2.50
2019-03-29T16:14:24.217Z,2.10
2019-03-29T16:19:18.414Z,2.33
2019-03-29T16:24:12.403Z,1.98
2019-03-29T16:29:06.532Z,2.45
2019-03-29T16:34:00.610Z,2.08
2019-03-29T16:38:54.622Z,2.05
2019-03-29T16:43:48.580Z,2.00
2019-03-29T16:48:42.575Z,2.10
2019-03-29T16:53:39.649Z,1.80
2019-03-29T16:58:32.456Z,2.25
2019-03-29T17:03:26.581Z,1.92
2019-03-29T17:08:20.694Z,1.90
2019-03-29T17:13:14.705Z,2.02
2019-03-29T17:18:08.805Z,1.57
2019-03-29T17:23:03.358Z,2.22
2019-03-29T17:27:57.364Z,2.50
2019-03-29T17:32:51.432Z,2.40
2019-03-29T17:37:45.507Z,2.60
2019-03-29T17:42:39.502Z,2.67
2019-03-29T17:47:33.688Z,2.20
2019-03-29T17:52:27.802Z,2.20
2019-03-29T17:57:21.874Z,2.17
2019-03-29T18:02:16.084Z,3.00
2019-03-29T18:07:10.441Z,2.70
2019-03-29T18:12:04.510Z,3.70
2019-03-29T18:16:58.626Z,2.65
2019-03-29T18:21:52.729Z,3.20
2019-03-29T18:26:46.709Z,3.37
2019-03-29T18:31:40.819Z,4.42
2019-03-29T18:36:34.918Z,4.42
2019-03-29T18:41:28.904Z,4.97
2019-03-29T18:46:23.040Z,3.87
2019-03-29T18:51:17.014Z,4.12
2019-03-29T18:56:11.021Z,7.17
2019-03-29T19:01:05.135Z,7.20
2019-03-29T19:05:59.082Z,8.15
2019-03-29T19:10:53.202Z,9.85
2019-03-29T19:15:47.187Z,9.23
2019-03-29T19:20:41.309Z,9.05
2019-03-29T19:25:35.446Z,7.30
2019-03-29T19:30:29.463Z,7.45
2019-03-29T19:35:23.807Z,5.97
2019-03-29T19:40:18.034Z,6.72
2019-03-29T19:45:12.312Z,7.05
2019-03-29T19:50:06.714Z,6.63
2019-03-29T19:55:01.471Z,10.40
2019-03-29T19:59:56.078Z,8.10
2019-03-29T20:04:50.060Z,7.40
2019-03-29T20:09:44.304Z,6.58
2019-03-29T20:14:38.405Z,6.87
2019-03-29T20:19:32.553Z,6.92
2019-03-29T20:24:26.584Z,6.50
2019-03-29T20:29:20.659Z,7.10
2019-03-29T20:34:14.747Z,6.22
2019-03-29T20:39:08.748Z,6.35
2019-03-29T20:44:02.873Z,18.20
2019-03-29T20:48:56.888Z,12.33
2019-03-29T20:53:51.072Z,9.83
2019-03-29T20:58:45.091Z,9.23
2019-03-29T21:03:39.274Z,10.80
2019-03-29T21:08:33.262Z,9.10
2019-03-29T21:13:27.410Z,7.00
2019-03-29T21:18:21.422Z,7.23
2019-03-29T21:23:15.427Z,9.43
2019-03-29T21:28:09.499Z,7.87
2019-03-29T21:33:03.626Z,6.07
2019-03-29T21:37:57.829Z,5.10
2019-03-29T21:42:51.845Z,4.60
2019-03-29T21:47:46.209Z,4.33
2019-03-29T21:52:40.235Z,4.60
2019-03-29T21:57:34.307Z,4.60
2019-03-29T22:02:28.364Z,4.60
2019-03-29T22:07:22.342Z,4.20
2019-03-29T22:12:16.406Z,4.20
2019-03-29T22:17:10.487Z,4.50
2019-03-29T22:22:04.474Z,4.90
2019-03-29T22:26:58.462Z,4.50
2019-03-29T22:31:52.464Z,4.90
2019-03-29T22:36:46.460Z,5.20
2019-03-29T22:41:40.444Z,5.80
2019-03-29T22:46:34.430Z,5.70
2019-03-29T22:51:28.402Z,6.67
2019-03-29T22:56:22.485Z,6.00
2019-03-29T23:01:17.547Z,6.10
2019-03-29T23:06:11.644Z,5.80
2019-03-29T23:11:05.671Z,5.70
2019-03-29T23:15:59.803Z,5.97
2019-03-29T23:20:54.039Z,5.90
2019-03-29T23:25:47.984Z,5.50
2019-03-29T23:30:42.061Z,6.33
2019-03-29T23:35:36.060Z,6.90
2019-03-29T23:40:30.142Z,6.43
2019-03-29T23:45:24.146Z,6.50
2019-03-29T23:50:18.169Z,6.73
2019-03-29T23:55:12.170Z,6.70
